Time;durP1;ratioP1;P1;durP2;ratioP2;P2;SDS_P1;SDS_P2;PMS_P1;PMS_P2;Temp;Humidity;BMP_temperature;BMP_pressure;BME280_temperature;BME280_humidity;BME280_pressure;Samples;Min_cycle;Max_cycle;Signal;HPM_P1;HPM_P2
2023/05/15 00:01:19;;;;;;;;;2.00;2.00;;;;;;;;4988104;28;11446;-67
2023/05/15 00:03:44;;;;;;;;;4.25;3.25;;;;;;;;4988691;28;8901;-67
2023/05/15 00:06:09;;;;;;;;;3.00;3.00;;;;;;;;4990167;28;8926;-67
2023/05/15 00:08:35;;;;;;;;;5.75;4.75;;;;;;;;4990010;28;9503;-67
2023/05/15 00:11:00;;;;;;;;;3.25;3.25;;;;;;;;4973435;28;8801;-67
2023/05/15 00:13:26;;;;;;;;;7.00;4.00;;;;;;;;4970640;28;8812;-67
2023/05/15 00:15:51;;;;;;;;;4.75;2.00;;;;;;;;4970302;28;9707;-67
2023/05/15 00:18:16;;;;;;;;;4.00;2.00;;;;;;;;4970103;28;8814;-66
2023/05/15 00:20:41;;;;;;;;;3.00;3.00;;;;;;;;4970347;28;8841;-67
2023/05/15 00:23:07;;;;;;;;;3.50;3.00;;;;;;;;4970371;28;8786;-66
2023/05/15 00:25:32;;;;;;;;;7.00;3.25;;;;;;;;4976422;28;8810;-66
2023/05/15 00:27:57;;;;;;;;;3.75;3.75;;;;;;;;4989772;28;8806;-66
2023/05/15 00:30:23;;;;;;;;;3.25;3.25;;;;;;;;4988459;28;8935;-66
2023/05/15 00:32:48;;;;;;;;;4.00;3.00;;;;;;;;4977171;28;8856;-66
2023/05/15 00:35:13;;;;;;;;;2.25;2.25;;;;;;;;4960909;28;8820;-66
2023/05/15 00:37:39;;;;;;;;;4.00;2.75;;;;;;;;4958356;28;8848;-67
2023/05/15 00:40:04;;;;;;;;;2.00;2.00;;;;;;;;4961539;28;9512;-67
2023/05/15 00:42:31;;;;;;;;;5.50;2.75;;;;;;;;4953374;28;8808;-68
2023/05/15 00:44:57;;;;;;;;;3.00;2.00;;;;;;;;4949393;28;8820;-66
2023/05/15 00:47:23;;;;;;;;;2.00;2.00;;;;;;;;4949479;28;11487;-66
2023/05/15 00:49:49;;;;;;;;;3.00;3.00;;;;;;;;4950858;28;11553;-66
2023/05/15 00:52:14;;;;;;;;;3.25;3.00;;;;;;;;4950851;28;8796;-66
2023/05/15 00:54:40;;;;;;;;;3.00;3.00;;;;;;;;4950192;28;11461;-65
2023/05/15 00:57:07;;;;;;;;;5.00;3.75;;;;;;;;4987313;28;8830;-67
2023/05/15 00:59:33;;;;;;;;;2.00;2.00;;;;;;;;4989164;28;8794;-64
2023/05/15 01:01:59;;;;;;;;;3.00;3.00;;;;;;;;4961450;28;11561;-65
2023/05/15 01:04:24;;;;;;;;;4.50;3.00;;;;;;;;4960312;28;11661;-65
2023/05/15 01:06:52;;;;;;;;;2.00;2.00;;;;;;;;4960427;28;8828;-65
2023/05/15 11:03:13;;;;;;;;;0.00;0.00;;;;;;;;4956969;27;13427;-71
2023/05/15 11:05:57;;;;;;;;;1.00;1.00;;;;;;;;5015057;28;10811;-70
2023/05/15 11:08:24;;;;;;;;;2.50;1.00;;;;;;;;5024766;28;8806;-71
2023/05/15 11:10:50;;;;;;;;;0.50;0.00;;;;;;;;5026405;28;8846;-70
2023/05/15 11:13:15;;;;;;;;;0.00;0.00;;;;;;;;5007310;28;11113;-70
2023/05/15 11:15:41;;;;;;;;;0.00;0.00;;;;;;;;5046061;28;8926;-69
2023/05/15 11:18:06;;;;;;;;;0.00;0.00;;;;;;;;5043228;28;8819;-70
2023/05/15 11:20:52;;;;;;;;;0.00;0.00;;;;;;;;5044692;28;8927;-72
2023/05/15 11:23:21;;;;;;;;;0.00;0.00;;;;;;;;5041658;28;8827;-68
2023/05/15 11:25:51;;;;;;;;;0.00;0.00;;;;;;;;5041980;28;9962;-72
2023/05/15 11:28:21;;;;;;;;;0.00;0.00;;;;;;;;5026039;28;8968;-68
2023/05/15 11:30:49;;;;;;;;;0.00;0.00;;;;;;;;5026346;28;8825;-72
2023/05/15 11:33:15;;;;;;;;;0.00;0.00;;;;;;;;5025824;28;8859;-71
2023/05/15 11:35:42;;;;;;;;;0.00;0.00;;;;;;;;5025872;28;8826;-72
2023/05/15 11:38:10;;;;;;;;;0.00;0.00;;;;;;;;5025797;28;8810;-72
2023/05/15 11:41:05;;;;;;;;;0.25;0.00;;;;;;;;5025747;28;8864;-71
2023/05/15 11:43:31;;;;;;;;;0.00;0.00;;;;;;;;5024495;28;8858;-72
2023/05/15 11:45:56;;;;;;;;;0.00;0.00;;;;;;;;5025418;28;8837;-71
2023/05/15 11:48:30;;;;;;;;;0.67;0.00;;;;;;;;5040385;28;10645;-71
2023/05/15 11:50:55;;;;;;;;;1.00;1.00;;;;;;;;5025624;28;8775;-71
2023/05/15 11:53:22;;;;;;;;;0.00;0.00;;;;;;;;5025612;28;8898;-71
2023/05/15 11:55:48;;;;;;;;;0.00;0.00;;;;;;;;5033407;28;8880;-71
2023/05/15 11:58:14;;;;;;;;;0.00;0.00;;;;;;;;5045202;28;8904;-71
2023/05/15 12:00:40;;;;;;;;;0.00;0.00;;;;;;;;5045413;28;9534;-71
2023/05/15 12:03:05;;;;;;;;;0.00;0.00;;;;;;;;5044582;28;8815;-71
2023/05/15 12:05:30;;;;;;;;;0.00;0.00;;;;;;;;5043682;28;8914;-70
2023/05/15 12:07:56;;;;;;;;;0.00;0.00;;;;;;;;5045250;28;8869;-71
2023/05/15 12:10:22;;;;;;;;;0.00;0.00;;;;;;;;5032092;28;9565;-72
2023/05/15 12:12:47;;;;;;;;;0.00;0.00;;;;;;;;5019910;28;8810;-72
2023/05/15 12:15:14;;;;;;;;;0.00;0.00;;;;;;;;5012005;28;8830;-72
2023/05/15 12:17:39;;;;;;;;;0.00;0.00;;;;;;;;5011741;28;9494;-72
2023/05/15 12:20:07;;;;;;;;;0.00;0.00;;;;;;;;5011656;28;8891;-72
2023/05/15 12:22:40;;;;;;;;;0.75;0.75;;;;;;;;5011497;28;8956;-72
2023/05/15 12:25:06;;;;;;;;;0.00;0.00;;;;;;;;5012566;28;8899;-71
2023/05/15 12:27:32;;;;;;;;;0.00;0.00;;;;;;;;5031532;28;8877;-71
2023/05/15 12:29:58;;;;;;;;;0.00;0.00;;;;;;;;5031381;28;11469;-71
2023/05/15 12:32:25;;;;;;;;;1.00;0.00;;;;;;;;5031134;28;8819;-70
2023/05/15 12:34:50;;;;;;;;;0.00;0.00;;;;;;;;5029965;28;8851;-71
2023/05/15 12:37:19;;;;;;;;;0.00;0.00;;;;;;;;5031335;28;9022;-71
2023/05/15 12:40:09;;;;;;;;;0.00;0.00;;;;;;;;5024269;28;8814;-71
2023/05/15 12:42:41;;;;;;;;;0.00;0.00;;;;;;;;5011403;28;9517;-71
2023/05/15 12:45:16;;;;;;;;;0.00;0.00;;;;;;;;5011377;28;8889;-72
2023/05/15 12:47:45;;;;;;;;;0.00;0.00;;;;;;;;5009631;28;8947;-72
2023/05/15 12:50:15;;;;;;;;;0.00;0.00;;;;;;;;5011201;28;9737;-72
2023/05/15 12:52:45;;;;;;;;;0.00;0.00;;;;;;;;5011201;28;8994;-71
2023/05/15 12:55:14;;;;;;;;;0.00;0.00;;;;;;;;5013958;28;8892;-71
2023/05/15 12:57:40;;;;;;;;;0.00;0.00;;;;;;;;5031013;28;8883;-71
2023/05/15 13:00:09;;;;;;;;;0.00;0.00;;;;;;;;5028742;28;9874;-71
2023/05/15 13:02:34;;;;;;;;;0.00;0.00;;;;;;;;5030479;28;9073;-71
2023/05/15 13:05:01;;;;;;;;;0.00;0.00;;;;;;;;5030491;28;8839;-71
2023/05/15 13:07:27;;;;;;;;;0.00;0.00;;;;;;;;5030828;28;8826;-72
2023/05/15 13:10:06;;;;;;;;;0.00;0.00;;;;;;;;5022655;28;8914;-72
2023/05/15 13:12:35;;;;;;;;;0.00;0.00;;;;;;;;5010779;28;8902;-72
2023/05/15 13:15:00;;;;;;;;;1.00;0.00;;;;;;;;5010439;28;8913;-72
2023/05/15 13:17:28;;;;;;;;;0.33;0.33;;;;;;;;5010447;28;8909;-71
2023/05/15 13:19:54;;;;;;;;;1.00;0.00;;;;;;;;5010877;28;8968;-71
2023/05/15 13:22:19;;;;;;;;;0.00;0.00;;;;;;;;5009335;28;9019;-71
2023/05/15 13:24:45;;;;;;;;;0.00;0.00;;;;;;;;5009697;28;8837;-71
2023/05/15 13:27:10;;;;;;;;;0.00;0.00;;;;;;;;5029986;28;8828;-71
2023/05/15 13:29:38;;;;;;;;;0.00;0.00;;;;;;;;5030403;28;8804;-71
2023/05/15 13:32:03;;;;;;;;;2.00;0.00;;;;;;;;5030208;28;8928;-71
2023/05/15 13:34:29;;;;;;;;;0.00;0.00;;;;;;;;5028881;28;9341;-72
2023/05/15 13:36:54;;;;;;;;;0.00;0.00;;;;;;;;5029852;28;8953;-71
2023/05/15 13:39:20;;;;;;;;;1.67;0.00;;;;;;;;5026958;28;8852;-71
2023/05/15 13:41:45;;;;;;;;;0.67;0.00;;;;;;;;5008832;28;8853;-71
2023/05/15 13:44:10;;;;;;;;;0.00;0.00;;;;;;;;5010243;28;8949;-71
2023/05/15 13:46:36;;;;;;;;;0.00;0.00;;;;;;;;5010110;28;8866;-71
2023/05/15 13:49:01;;;;;;;;;0.00;0.00;;;;;;;;5010030;28;8791;-71
2023/05/15 13:51:26;;;;;;;;;0.00;0.00;;;;;;;;5009871;28;8830;-73
2023/05/15 13:53:52;;;;;;;;;0.67;0.67;;;;;;;;5010979;28;8803;-72
2023/05/15 13:56:17;;;;;;;;;1.00;1.00;;;;;;;;5022229;28;8908;-71
2023/05/15 13:58:42;;;;;;;;;1.00;1.00;;;;;;;;5029675;28;8803;-72
2023/05/15 14:01:08;;;;;;;;;0.33;0.33;;;;;;;;5029432;28;8864;-71
2023/05/15 14:03:33;;;;;;;;;2.00;0.33;;;;;;;;5029528;28;9483;-72
2023/05/15 14:05:59;;;;;;;;;0.00;0.00;;;;;;;;5029758;28;8792;-73
2023/05/15 14:08:24;;;;;;;;;1.00;1.00;;;;;;;;5029077;28;8843;-72
2023/05/15 14:10:49;;;;;;;;;1.33;1.33;;;;;;;;5013964;28;8848;-72
2023/05/15 14:13:15;;;;;;;;;0.33;0.33;;;;;;;;5009994;28;8836;-71
2023/05/15 14:15:40;;;;;;;;;0.67;0.67;;;;;;;;5009634;28;8794;-71
2023/05/15 14:18:05;;;;;;;;;0.00;0.00;;;;;;;;5024620;28;8806;-72
2023/05/15 14:20:30;;;;;;;;;1.00;1.00;;;;;;;;5009492;28;8798;-70
2023/05/15 14:22:56;;;;;;;;;1.00;1.00;;;;;;;;5007903;28;9219;-71
2023/05/15 14:25:21;;;;;;;;;1.00;1.00;;;;;;;;5013726;28;8826;-71
2023/05/15 14:27:46;;;;;;;;;1.00;1.00;;;;;;;;5027701;28;8908;-70
2023/05/15 14:30:14;;;;;;;;;1.00;1.00;;;;;;;;5028719;28;8788;-71
2023/05/15 14:32:42;;;;;;;;;1.25;1.25;;;;;;;;5028902;28;8823;-71
2023/05/15 14:35:08;;;;;;;;;1.00;1.00;;;;;;;;5028954;28;9567;-71
2023/05/15 14:37:33;;;;;;;;;5.00;4.25;;;;;;;;5028486;28;9209;-71
2023/05/15 14:39:58;;;;;;;;;5.00;3.00;;;;;;;;5020335;28;8806;-71
2023/05/15 14:42:25;;;;;;;;;1.00;1.00;;;;;;;;5009053;28;8848;-71
2023/05/15 14:44:51;;;;;;;;;0.33;0.33;;;;;;;;5009078;28;8802;-71
2023/05/15 14:47:17;;;;;;;;;1.67;1.00;;;;;;;;5008687;28;9027;-71
2023/05/15 14:49:42;;;;;;;;;1.00;1.00;;;;;;;;5008985;28;8919;-71
2023/05/15 14:54:38;;;;;;;;;1.00;1.00;;;;;;;;5047736;28;9596;-73
2023/05/15 14:57:03;;;;;;;;;0.00;0.00;;;;;;;;5049188;28;9352;-73
2023/05/15 14:59:29;;;;;;;;;1.00;1.00;;;;;;;;5049283;28;8808;-73
2023/05/15 15:01:54;;;;;;;;;1.00;1.00;;;;;;;;5047536;28;8817;-73
2023/05/15 15:04:19;;;;;;;;;1.00;1.00;;;;;;;;5048822;28;8814;-72
2023/05/15 15:06:48;;;;;;;;;0.00;0.00;;;;;;;;5048476;28;8785;-71
2023/05/15 15:09:13;;;;;;;;;0.00;0.00;;;;;;;;5049224;28;8797;-69
2023/05/15 15:11:38;;;;;;;;;0.00;0.00;;;;;;;;5049183;28;9133;-70
2023/05/15 15:14:04;;;;;;;;;1.33;1.00;;;;;;;;5049357;28;8809;-68
2023/05/15 15:16:29;;;;;;;;;0.00;0.00;;;;;;;;5049128;28;8867;-70
2023/05/15 15:18:54;;;;;;;;;0.00;0.00;;;;;;;;5048971;28;8797;-72
2023/05/15 15:21:19;;;;;;;;;1.00;1.00;;;;;;;;5048951;28;8805;-68
2023/05/15 15:23:45;;;;;;;;;0.00;0.00;;;;;;;;5049009;28;8805;-70
2023/05/15 15:26:10;;;;;;;;;0.00;0.00;;;;;;;;5048423;28;8833;-70
2023/05/15 15:28:35;;;;;;;;;1.67;0.00;;;;;;;;5048888;28;8911;-69
2023/05/15 15:31:01;;;;;;;;;0.00;0.00;;;;;;;;5048945;28;8832;-73
2023/05/15 15:33:26;;;;;;;;;1.00;1.00;;;;;;;;5048529;28;9540;-73
2023/05/15 15:35:52;;;;;;;;;1.00;1.00;;;;;;;;5048643;28;8801;-69
2023/05/15 15:38:17;;;;;;;;;0.33;0.33;;;;;;;;5048729;28;8805;-71
2023/05/15 15:40:42;;;;;;;;;0.00;0.00;;;;;;;;5048274;28;9664;-70
2023/05/15 15:43:07;;;;;;;;;1.00;1.00;;;;;;;;5048352;28;8813;-70
2023/05/15 15:45:33;;;;;;;;;1.00;1.00;;;;;;;;5047884;28;8849;-69
2023/05/15 15:47:58;;;;;;;;;2.00;0.67;;;;;;;;5048673;28;9566;-72
2023/05/15 15:50:23;;;;;;;;;2.00;1.00;;;;;;;;5051580;28;8821;-70
2023/05/15 15:52:48;;;;;;;;;1.67;1.00;;;;;;;;5051703;28;8829;-72
2023/05/15 15:55:14;;;;;;;;;1.00;1.00;;;;;;;;5051891;28;8904;-70
2023/05/15 15:57:39;;;;;;;;;1.00;1.00;;;;;;;;5052180;28;8789;-73
2023/05/15 16:00:05;;;;;;;;;1.67;1.00;;;;;;;;5052284;28;8793;-70
2023/05/15 16:02:31;;;;;;;;;0.00;0.00;;;;;;;;5050224;28;8848;-73
2023/05/15 16:04:56;;;;;;;;;0.67;0.67;;;;;;;;5050807;28;9065;-73
2023/05/15 16:07:21;;;;;;;;;0.67;0.67;;;;;;;;5051784;28;8928;-70
2023/05/15 16:09:47;;;;;;;;;0.00;0.00;;;;;;;;5051555;28;8828;-70
2023/05/15 16:12:12;;;;;;;;;0.00;0.00;;;;;;;;5051521;28;8801;-69
2023/05/15 16:14:37;;;;;;;;;0.00;0.00;;;;;;;;5051728;28;8813;-71
2023/05/15 16:17:02;;;;;;;;;0.00;0.00;;;;;;;;5051641;28;8821;-71
2023/05/15 16:19:28;;;;;;;;;1.33;1.00;;;;;;;;5051246;28;8817;-72
2023/05/15 16:21:53;;;;;;;;;0.00;0.00;;;;;;;;4945732;28;10856;-72
2023/05/15 16:24:18;;;;;;;;;0.33;0.33;;;;;;;;5044041;28;8797;-72
2023/05/15 16:26:44;;;;;;;;;0.00;0.00;;;;;;;;5050021;28;8832;-74
2023/05/15 16:29:09;;;;;;;;;1.00;0.67;;;;;;;;5042268;28;8797;-73
2023/05/15 16:31:34;;;;;;;;;0.67;0.33;;;;;;;;5050022;28;9560;-72
2023/05/15 16:34:00;;;;;;;;;0.00;0.00;;;;;;;;5051436;28;8821;-74
2023/05/15 16:36:26;;;;;;;;;0.33;0.33;;;;;;;;5047240;28;8812;-73
2023/05/15 16:38:52;;;;;;;;;0.00;0.00;;;;;;;;5051102;28;8904;-71
2023/05/15 16:41:17;;;;;;;;;1.00;1.00;;;;;;;;5050334;28;9297;-69
2023/05/15 16:43:42;;;;;;;;;0.67;0.67;;;;;;;;5048228;28;8809;-70
2023/05/15 16:46:08;;;;;;;;;0.00;0.00;;;;;;;;5046647;28;8873;-71
2023/05/15 16:48:33;;;;;;;;;0.00;0.00;;;;;;;;5048608;28;8906;-69
2023/05/15 16:50:58;;;;;;;;;0.00;0.00;;;;;;;;5050656;28;8797;-71
2023/05/15 16:53:24;;;;;;;;;2.67;1.00;;;;;;;;5050907;28;8817;-68
2023/05/15 16:55:49;;;;;;;;;1.33;1.00;;;;;;;;5044990;28;8844;-70
2023/05/15 16:58:15;;;;;;;;;3.00;2.00;;;;;;;;5048604;28;8900;-69
2023/05/15 17:00:40;;;;;;;;;1.00;1.00;;;;;;;;5041697;28;8910;-68
2023/05/15 17:03:06;;;;;;;;;2.00;1.00;;;;;;;;5043863;28;8848;-68
2023/05/15 17:05:31;;;;;;;;;1.00;1.00;;;;;;;;5047027;28;8915;-70
2023/05/15 17:07:57;;;;;;;;;1.00;1.00;;;;;;;;5048861;28;8860;-69
2023/05/15 17:10:22;;;;;;;;;3.25;3.25;;;;;;;;5049492;28;8817;-70
2023/05/15 17:12:48;;;;;;;;;0.25;0.25;;;;;;;;5046878;28;8819;-71
2023/05/15 17:15:13;;;;;;;;;2.00;1.75;;;;;;;;5049487;28;8859;-71
2023/05/15 17:17:38;;;;;;;;;1.50;1.00;;;;;;;;5048252;28;8805;-76
2023/05/15 17:20:04;;;;;;;;;1.00;1.00;;;;;;;;5032765;28;8840;-73
2023/05/15 17:22:30;;;;;;;;;1.25;1.25;;;;;;;;5042683;28;9029;-72
2023/05/15 17:24:55;;;;;;;;;2.00;2.00;;;;;;;;5045127;28;9069;-73
2023/05/15 17:27:20;;;;;;;;;2.00;2.00;;;;;;;;5049335;28;8936;-73
2023/05/15 17:29:46;;;;;;;;;1.00;1.00;;;;;;;;5050458;28;8793;-75
2023/05/15 17:32:11;;;;;;;;;2.00;2.00;;;;;;;;5047585;28;8813;-74
2023/05/15 17:34:37;;;;;;;;;1.50;1.00;;;;;;;;5050050;28;8851;-75
2023/05/15 17:37:02;;;;;;;;;2.25;2.25;;;;;;;;5056780;28;8833;-73
2023/05/15 17:39:27;;;;;;;;;2.25;2.25;;;;;;;;5049948;28;8797;-68
2023/05/15 17:41:53;;;;;;;;;1.00;1.00;;;;;;;;5037743;28;8852;-67
2023/05/15 17:44:18;;;;;;;;;0.75;0.75;;;;;;;;5030360;28;8791;-67
2023/05/15 17:46:43;;;;;;;;;1.25;1.25;;;;;;;;5030204;28;9637;-69
2023/05/15 17:49:08;;;;;;;;;2.00;2.00;;;;;;;;5030087;28;8815;-73
2023/05/15 17:51:34;;;;;;;;;1.50;1.50;;;;;;;;5036573;28;8812;-69
2023/05/15 17:53:59;;;;;;;;;1.50;1.50;;;;;;;;5050113;28;8863;-69
2023/05/15 17:56:26;;;;;;;;;1.75;1.75;;;;;;;;5036919;28;8822;-70
2023/05/15 17:58:51;;;;;;;;;2.00;1.25;;;;;;;;5029927;28;8908;-68
2023/05/15 18:01:17;;;;;;;;;2.75;1.50;;;;;;;;5033897;28;9658;-68
2023/05/15 18:03:42;;;;;;;;;2.00;2.00;;;;;;;;5049599;28;8943;-67
2023/05/15 18:06:07;;;;;;;;;1.25;1.00;;;;;;;;5049548;28;8788;-69
2023/05/15 18:08:32;;;;;;;;;1.75;1.75;;;;;;;;5047469;28;9093;-70
2023/05/15 18:10:58;;;;;;;;;2.00;1.00;;;;;;;;5043990;28;8856;-68
2023/05/15 18:13:23;;;;;;;;;3.00;1.25;;;;;;;;5049660;28;8892;-67
2023/05/15 18:15:48;;;;;;;;;1.25;1.25;;;;;;;;5045418;28;8820;-68
2023/05/15 18:18:13;;;;;;;;;1.00;1.00;;;;;;;;5029269;28;9523;-68
2023/05/15 18:20:39;;;;;;;;;15.00;10.00;;;;;;;;5028891;28;8827;-70
2023/05/15 18:23:05;;;;;;;;;13.00;11.75;;;;;;;;5029249;28;8913;-66
2023/05/15 18:25:30;;;;;;;;;15.00;13.00;;;;;;;;5040067;28;8929;-65
2023/05/15 18:27:55;;;;;;;;;9.25;9.00;;;;;;;;5049166;28;8835;-73
2023/05/15 18:30:20;;;;;;;;;5.75;5.75;;;;;;;;5048806;28;8837;-68
2023/05/15 18:32:46;;;;;;;;;8.00;6.25;;;;;;;;5046288;28;8829;-66
2023/05/15 18:35:11;;;;;;;;;7.25;7.25;;;;;;;;5049405;28;9497;-68
2023/05/15 18:37:36;;;;;;;;;4.00;3.75;;;;;;;;5049067;28;8841;-69
2023/05/15 18:40:02;;;;;;;;;3.50;3.50;;;;;;;;5047801;28;8964;-68
2023/05/15 18:42:28;;;;;;;;;3.50;3.50;;;;;;;;5046587;28;8848;-65
2023/05/15 18:44:53;;;;;;;;;2.00;2.00;;;;;;;;5049148;28;8801;-65
2023/05/15 18:47:18;;;;;;;;;2.00;2.00;;;;;;;;5049060;28;8785;-67
2023/05/15 18:49:44;;;;;;;;;15.00;12.50;;;;;;;;5049191;28;9578;-66
2023/05/15 18:52:09;;;;;;;;;10.00;9.25;;;;;;;;5046929;28;8844;-65
2023/05/15 18:54:35;;;;;;;;;10.00;10.00;;;;;;;;5048545;28;8948;-64
2023/05/15 18:57:00;;;;;;;;;6.75;5.00;;;;;;;;5048935;28;8836;-66
2023/05/15 18:59:25;;;;;;;;;19.75;17.00;;;;;;;;5048717;28;8789;-64
2023/05/15 19:01:52;;;;;;;;;15.00;14.00;;;;;;;;5046046;28;8871;-68
2023/05/15 19:04:18;;;;;;;;;31.50;26.75;;;;;;;;5048768;28;8805;-67
2023/05/15 19:06:43;;;;;;;;;30.25;28.50;;;;;;;;5047633;28;11489;-65
2023/05/15 19:09:09;;;;;;;;;12.00;11.00;;;;;;;;5047945;28;8830;-65
2023/05/15 19:11:34;;;;;;;;;12.25;8.00;;;;;;;;5045584;28;8817;-66
2023/05/15 19:13:59;;;;;;;;;8.25;8.25;;;;;;;;5048132;28;9523;-66
2023/05/15 19:16:27;;;;;;;;;11.00;7.25;;;;;;;;5048141;28;8798;-68
2023/05/15 19:18:52;;;;;;;;;27.00;24.25;;;;;;;;5048247;28;8821;-68
2023/05/15 19:21:19;;;;;;;;;47.75;39.25;;;;;;;;5045598;28;11160;-68
2023/05/15 19:23:45;;;;;;;;;31.75;30.00;;;;;;;;5050591;28;8794;-67
2023/05/15 19:26:10;;;;;;;;;20.00;17.00;;;;;;;;5041332;28;11573;-66
2023/05/15 19:28:35;;;;;;;;;32.00;29.25;;;;;;;;5032257;28;8820;-64
2023/05/15 19:31:03;;;;;;;;;12.75;11.50;;;;;;;;5032317;28;8812;-65
2023/05/15 19:33:28;;;;;;;;;7.50;7.50;;;;;;;;5032560;28;8876;-64
2023/05/15 19:35:53;;;;;;;;;16.00;14.00;;;;;;;;5032544;28;10501;-66
2023/05/15 19:38:18;;;;;;;;;11.25;11.25;;;;;;;;5032274;28;8804;-64
2023/05/15 19:40:44;;;;;;;;;1.25;1.25;;;;;;;;5046804;28;9666;-65
2023/05/15 19:43:10;;;;;;;;;2.00;2.00;;;;;;;;5052056;28;8837;-66
2023/05/15 19:45:37;;;;;;;;;12.50;11.50;;;;;;;;5051970;28;9006;-66
2023/05/15 19:48:03;;;;;;;;;4.00;4.00;;;;;;;;5051908;28;8808;-65
2023/05/15 19:50:28;;;;;;;;;4.25;4.00;;;;;;;;5067341;28;10124;-66
2023/05/15 19:52:54;;;;;;;;;3.00;3.00;;;;;;;;5052174;28;8943;-65
2023/05/15 19:55:22;;;;;;;;;3.25;3.00;;;;;;;;5052192;28;8809;-66
2023/05/15 19:57:48;;;;;;;;;1.75;1.75;;;;;;;;5050968;28;8833;-67
2023/05/15 20:00:13;;;;;;;;;3.00;2.25;;;;;;;;5052183;28;10307;-68
2023/05/15 20:02:40;;;;;;;;;2.00;2.00;;;;;;;;5052054;28;8817;-67
2023/05/15 20:05:06;;;;;;;;;2.00;2.00;;;;;;;;5051706;28;8801;-68
2023/05/15 20:07:31;;;;;;;;;4.00;4.00;;;;;;;;5052041;28;10811;-67
2023/05/15 20:09:56;;;;;;;;;2.00;2.00;;;;;;;;5051925;28;8914;-66
2023/05/15 20:12:22;;;;;;;;;1.00;1.00;;;;;;;;5051351;28;8989;-67
2023/05/15 20:14:48;;;;;;;;;3.00;3.00;;;;;;;;5050347;28;8809;-67
2023/05/15 20:17:13;;;;;;;;;4.25;2.00;;;;;;;;5051709;28;8820;-68
2023/05/15 20:19:38;;;;;;;;;2.00;2.00;;;;;;;;5051690;28;10972;-67
2023/05/15 20:22:04;;;;;;;;;4.75;2.00;;;;;;;;5051588;28;8833;-67
2023/05/15 20:24:31;;;;;;;;;1.75;1.00;;;;;;;;5051963;28;8805;-66
2023/05/15 20:26:56;;;;;;;;;1.75;1.00;;;;;;;;5051160;28;8804;-66
2023/05/15 20:29:21;;;;;;;;;1.00;1.00;;;;;;;;5051034;28;9941;-68
2023/05/15 20:31:47;;;;;;;;;1.00;1.00;;;;;;;;5047859;28;8805;-66
2023/05/15 20:34:13;;;;;;;;;2.00;1.00;;;;;;;;5049061;28;8813;-67
2023/05/15 20:36:39;;;;;;;;;1.75;1.75;;;;;;;;5051679;28;8820;-67
2023/05/15 20:39:05;;;;;;;;;1.50;1.50;;;;;;;;5051012;28;10049;-67
2023/05/15 20:41:31;;;;;;;;;1.00;1.00;;;;;;;;5050821;28;8873;-67
2023/05/15 20:43:56;;;;;;;;;1.50;1.50;;;;;;;;5050976;28;10068;-67
2023/05/15 20:46:23;;;;;;;;;1.00;1.00;;;;;;;;5050729;28;8876;-67
2023/05/15 20:48:48;;;;;;;;;0.50;0.50;;;;;;;;5050948;28;8870;-67
2023/05/15 20:51:14;;;;;;;;;1.00;1.00;;;;;;;;5050798;28;10029;-66
2023/05/15 20:53:40;;;;;;;;;1.25;1.00;;;;;;;;5050861;28;8924;-66
2023/05/15 20:56:05;;;;;;;;;0.00;0.00;;;;;;;;5050901;28;11361;-66
2023/05/15 20:58:31;;;;;;;;;1.25;0.00;;;;;;;;5049174;28;8853;-66
2023/05/15 21:00:59;;;;;;;;;1.00;1.00;;;;;;;;5050910;28;8813;-66
2023/05/15 21:03:25;;;;;;;;;0.75;0.75;;;;;;;;5050643;28;8829;-67
2023/05/15 21:05:50;;;;;;;;;0.25;0.25;;;;;;;;5047348;28;10140;-67
2023/05/15 21:08:15;;;;;;;;;1.00;1.00;;;;;;;;5050610;28;8805;-68
2023/05/15 21:10:41;;;;;;;;;0.00;0.00;;;;;;;;5042502;28;8917;-67
2023/05/15 21:13:07;;;;;;;;;0.00;0.00;;;;;;;;5028917;28;8815;-68
2023/05/15 21:15:32;;;;;;;;;3.25;1.50;;;;;;;;5038257;28;8829;-66
2023/05/15 21:17:58;;;;;;;;;1.00;1.00;;;;;;;;5038080;28;8831;-67
2023/05/15 21:20:23;;;;;;;;;0.00;0.00;;;;;;;;5039368;28;8821;-66
2023/05/15 21:22:49;;;;;;;;;0.00;0.00;;;;;;;;5044133;28;8855;-67
2023/05/15 21:25:15;;;;;;;;;1.00;1.00;;;;;;;;5047112;28;8981;-66
2023/05/15 21:27:40;;;;;;;;;0.00;0.00;;;;;;;;5034467;28;8903;-67
2023/05/15 21:30:06;;;;;;;;;0.75;0.75;;;;;;;;5045002;28;10301;-67
2023/05/15 21:32:32;;;;;;;;;0.00;0.00;;;;;;;;5049670;28;8802;-67
2023/05/15 21:34:57;;;;;;;;;0.75;0.75;;;;;;;;5049608;28;8820;-66
2023/05/15 21:37:22;;;;;;;;;1.00;1.00;;;;;;;;5050183;28;8890;-67
2023/05/15 21:39:47;;;;;;;;;3.00;2.00;;;;;;;;5049983;28;9547;-69
2023/05/15 21:42:13;;;;;;;;;1.00;1.00;;;;;;;;5049910;28;8845;-70
2023/05/15 21:44:39;;;;;;;;;1.00;1.00;;;;;;;;5049942;28;8813;-68
2023/05/15 21:47:04;;;;;;;;;0.00;0.00;;;;;;;;5049068;28;8891;-69
2023/05/15 21:49:30;;;;;;;;;2.00;1.00;;;;;;;;5049696;28;9516;-69
2023/05/15 21:51:55;;;;;;;;;0.25;0.25;;;;;;;;4997408;28;10676;-69
2023/05/15 21:54:20;;;;;;;;;0.75;0.00;;;;;;;;5060754;28;8833;-69
2023/05/15 21:56:46;;;;;;;;;0.00;0.00;;;;;;;;5047623;28;8805;-70
2023/05/15 21:59:13;;;;;;;;;0.00;0.00;;;;;;;;5045802;28;8853;-69
2023/05/15 22:01:40;;;;;;;;;1.00;1.00;;;;;;;;5047450;28;8959;-69
2023/05/15 22:04:05;;;;;;;;;0.75;0.75;;;;;;;;5062828;28;10644;-69
2023/05/15 22:06:31;;;;;;;;;0.50;0.50;;;;;;;;5047870;28;10764;-68
2023/05/15 22:08:56;;;;;;;;;1.00;1.00;;;;;;;;5047369;28;9080;-69
2023/05/15 22:11:22;;;;;;;;;1.00;1.00;;;;;;;;5048761;28;8789;-69
2023/05/15 22:13:47;;;;;;;;;1.00;1.00;;;;;;;;5049463;28;8890;-65
2023/05/15 22:16:13;;;;;;;;;0.00;0.00;;;;;;;;5049706;28;8789;-65
2023/05/15 22:18:38;;;;;;;;;0.00;0.00;;;;;;;;5049577;28;8882;-65
2023/05/15 22:21:03;;;;;;;;;0.00;0.00;;;;;;;;5049551;28;8824;-66
2023/05/15 22:23:29;;;;;;;;;0.00;0.00;;;;;;;;5049550;28;8821;-66
2023/05/15 22:25:54;;;;;;;;;1.25;1.00;;;;;;;;5048978;28;8878;-65
2023/05/15 22:28:20;;;;;;;;;0.75;0.50;;;;;;;;5049425;28;8808;-65
2023/05/15 22:30:45;;;;;;;;;1.00;1.00;;;;;;;;5049248;28;8886;-65
2023/05/15 22:33:10;;;;;;;;;0.75;0.75;;;;;;;;5049418;28;8848;-67
2023/05/15 22:35:36;;;;;;;;;0.00;0.00;;;;;;;;5049337;28;8789;-67
2023/05/15 22:38:01;;;;;;;;;1.00;1.00;;;;;;;;5049242;28;8804;-66
2023/05/15 22:40:26;;;;;;;;;1.00;1.00;;;;;;;;5049802;28;8797;-66
2023/05/15 22:42:51;;;;;;;;;0.00;0.00;;;;;;;;5031200;28;8836;-66
2023/05/15 22:45:17;;;;;;;;;0.50;0.50;;;;;;;;5029409;28;8784;-66
2023/05/15 22:47:42;;;;;;;;;1.00;0.00;;;;;;;;5029235;28;8788;-66
2023/05/15 22:50:08;;;;;;;;;0.00;0.00;;;;;;;;5029192;28;8807;-65
2023/05/15 22:52:33;;;;;;;;;0.75;0.75;;;;;;;;5029007;28;8844;-65
2023/05/15 22:54:58;;;;;;;;;0.00;0.00;;;;;;;;5030099;28;8949;-65
2023/05/15 22:57:25;;;;;;;;;0.25;0.00;;;;;;;;5048693;28;8906;-65
2023/05/15 22:59:51;;;;;;;;;0.00;0.00;;;;;;;;5048414;28;8805;-66
2023/05/15 23:02:16;;;;;;;;;1.25;0.25;;;;;;;;5048655;28;10300;-66
2023/05/15 23:04:42;;;;;;;;;0.75;0.75;;;;;;;;5047236;28;8932;-65
2023/05/15 23:07:07;;;;;;;;;1.00;1.00;;;;;;;;5048813;28;8840;-66
2023/05/15 23:09:32;;;;;;;;;2.00;1.00;;;;;;;;5048564;28;8824;-66
2023/05/15 23:11:58;;;;;;;;;0.00;0.00;;;;;;;;5064159;28;8829;-66
2023/05/15 23:14:24;;;;;;;;;2.00;0.00;;;;;;;;5064234;28;8808;-66
2023/05/15 23:16:49;;;;;;;;;0.25;0.00;;;;;;;;5048916;28;8793;-66
2023/05/15 23:19:15;;;;;;;;;0.00;0.00;;;;;;;;5048363;28;10482;-66
